Somerset, NJ - U.S.A.

40° 30' 13"N, 74° 29' 17"W, Elevation 55 ft.

Saturday, February 28, 2015
7:26:00 PM (Eastern)

59th day of the year

Updated and refreshed every 2 minutes. Weather computer in use: Davis Vantage PRO2 Plus


Current Weather:

Current Today's Highs and Lows
Temperature 21.2°F (-6.0°C) ↓ 27.8° 2:47 PM
10.7° 6:21 AM
Dew Point 4.5°F (-15.3°C) ↑ 4.6° 7:23 PM
-6.5° 4:30 AM
Humidity 48% ↑ 49% 3:11 AM
26% 5:02 PM
Wind Gust WSW 0 mph N 12 3:26 AM
NNW 0 12:00 AM
Wind Speed WSW 0 mph ↓
Calm (0)
N 7 7:59 AM
NNW 0 12:12 AM
Precipitation 0.00" (0.00 mm) 1
Last 24 hours 0.00"
Instantaneous rate 0.00"/hr
Storm total 0.00"
0.00"2 12:00 AM
0.00"2 12:00 AM
Barometer 30.760" (1041.7 mb)
Rising
30.835" 9:29 AM
30.635" 12:14 AM
Wind Chill Gust 21°F (-6°C) 28° 2:47 PM
-1° 7:58 AM
Wind Chill Avg 21°F (-6°C) 28° 2:47 PM
3° 7:59 AM
Heat Index 21°F (-6.1°C) 27° 1:54 PM
10° 6:08 AM
Sunshine 0 W/m2
Sunshine minutes 412
700 12:15 PM
0 12:00 AM
UV Index  0.0 2.2 12:12 PM
0.0 12:00 AM
1. Daily total rainfall.
2. Maximum and minimum rainfall are the instantaneous rainfall rates.

'KSOM' METAR REPORT:

METAR KSOM 010026Z AUTO 000000KT M06/M15 A3076 RMK AO1 SLP417 T10601153 

Yesterday's Weather and More...

Webcam
EBWeather Image

Video - Last 3 Hours

Video - Yesterday

Video - Last 3 Days

NJ Region Surface Map
NJ Sfc Map

Weather Data from Somerset, NJ

Data generated by WxSolution Version 1.8.7, Build 2013.11.03.